Portada
METAR-TAF:

METAR-TAF

Aeropuertos :

Kristianstad, Suecia

latitud: 55-55N, longitud: 014-05E, altitud: 23 m

Observación

El informe se hizo hace 44 minutos, a las 01:20 UTC
Viento calma
Temperatura 14°C
Humedad 100%
Presión 1009 hPa
Visibilidad: 0200 m

METAR: ESMK 280120Z AUTO 00000KT 0200 R01/P2000N R19/0650N // NCD 14/14 Q1009

Hora: 04:04 (02:04 UTC)

Pronóstico

El informe se hizo hace 14 horas y 53 minutos, a las 11:11 UTC
Pronóstico válido del 27 a las 12 UTC al 27 a las 15 UTC
Viento 8 kt del suroeste
Visibilidad 10 km o más
Nubes dispersas a una altura de 2000 ft
Temporalmente
del 27 a las 12 UTC al 27 a las 15 UTC
Nubes dispersas a una altura de 3000 ft, Cumulonimbus.
chaparrones de lluvia
Probabilidad 40% :
Temporalmente
del 27 a las 12 UTC al 27 a las 15 UTC
Visibilidad: 4000 m
tormenta, lluvia

TAF: ESMK 271111Z 2712/2715 23008KT 9999 SCT020 TEMPO 2712/2715 SHRA SCT030CB PROB40 TEMPO 2712/2715 4000 TSRA

Observaciones y pronósticos meteorológicos de más de 4000 aeropuertos (mensajes METAR y TAF).

Los puntos amarillos y rojos representan las estaciones disponibles.

Ponga el ratón en el punto deseado para ver el nombre de la estación.

Haga clic para ver las observaciones y los pronósticos meteorológicos.

Para cambiar el mapa : haga clic en los botones verdes con una cruz de color negro para hacer un zoom, en el botón verde con un guión para alejar o en las flechas verdes para mapas adyacentes.


METAR-TAF: